Time;durP1;ratioP1;P1;durP2;ratioP2;P2;SDS_P1;SDS_P2;PMS_P1;PMS_P2;Temp;Humidity;BMP_temperature;BMP_pressure;BME280_temperature;BME280_humidity;BME280_pressure;Samples;Min_cycle;Max_cycle;Signal;HPM_P1;HPM_P2
2021/12/31 00:00:54;;;;;;;43.60;5.97;;;;;;;;;;5058791;28;20342;-64
2021/12/31 00:03:24;;;;;;;58.08;7.20;;;;;;;;;;5056051;28;20071;-64
2021/12/31 00:05:51;;;;;;;51.90;7.20;;;;;;;;;;5057319;28;20080;-64
2021/12/31 00:08:17;;;;;;;46.45;6.10;;;;;;;;;;5053492;28;20681;-64
2021/12/31 00:10:45;;;;;;;70.15;7.60;;;;;;;;;;5054868;28;20535;-64
2021/12/31 00:13:11;;;;;;;58.15;7.25;;;;;;;;;;5054763;28;20067;-64
2021/12/31 00:15:38;;;;;;;50.55;6.85;;;;;;;;;;5053574;28;20546;-64
2021/12/31 00:18:11;;;;;;;46.22;5.75;;;;;;;;;;5055725;28;20135;-64
2021/12/31 00:20:40;;;;;;;50.75;7.30;;;;;;;;;;5058201;28;20147;-64
2021/12/31 00:23:12;;;;;;;72.07;6.90;;;;;;;;;;5060150;28;20080;-64
2021/12/31 00:25:45;;;;;;;55.85;7.35;;;;;;;;;;5056355;28;20131;-64
2021/12/31 00:28:12;;;;;;;61.75;6.53;;;;;;;;;;5058477;28;20139;-64
2021/12/31 00:30:39;;;;;;;56.47;6.95;;;;;;;;;;5059392;28;20136;-64
2021/12/31 00:33:12;;;;;;;60.35;6.53;;;;;;;;;;5060941;28;20080;-64
2021/12/31 00:35:38;;;;;;;43.08;5.60;;;;;;;;;;5063266;28;20132;-64
2021/12/31 00:38:05;;;;;;;50.33;6.00;;;;;;;;;;5061506;28;20072;-64
2021/12/31 00:40:38;;;;;;;58.15;6.50;;;;;;;;;;5057282;28;20493;-64
2021/12/31 00:43:06;;;;;;;59.70;7.03;;;;;;;;;;5064659;28;20087;-64
2021/12/31 00:45:37;;;;;;;64.38;7.40;;;;;;;;;;5055712;28;20084;-64
2021/12/31 00:48:06;;;;;;;57.97;7.22;;;;;;;;;;5060829;28;20139;-64
2021/12/31 00:50:33;;;;;;;60.67;7.78;;;;;;;;;;5060032;28;20051;-64
2021/12/31 00:53:03;;;;;;;63.40;7.05;;;;;;;;;;5062926;28;20147;-64
2021/12/31 00:55:29;;;;;;;50.60;6.60;;;;;;;;;;5058544;28;20596;-64
2021/12/31 00:57:56;;;;;;;69.95;7.22;;;;;;;;;;5061291;28;20172;-64
2021/12/31 01:00:23;;;;;;;56.13;6.20;;;;;;;;;;5059278;28;20075;-64
2021/12/31 01:02:50;;;;;;;60.13;6.68;;;;;;;;;;5049570;28;20712;-64
2021/12/31 01:05:17;;;;;;;84.03;6.78;;;;;;;;;;5044437;28;20140;-64
2021/12/31 01:07:44;;;;;;;41.37;5.37;;;;;;;;;;5062603;28;20055;-64
2021/12/31 01:10:18;;;;;;;71.95;6.80;;;;;;;;;;5060617;28;20477;-65
2021/12/31 01:12:45;;;;;;;49.88;6.32;;;;;;;;;;5055826;28;20152;-64
2021/12/31 01:15:22;;;;;;;61.35;6.25;;;;;;;;;;5056704;28;20063;-64
2021/12/31 01:20:22;;;;;;;54.90;6.82;;;;;;;;;;5062346;28;20244;-64
2021/12/31 01:22:48;;;;;;;59.65;7.00;;;;;;;;;;5064656;28;20562;-64
2021/12/31 01:25:21;;;;;;;48.95;5.57;;;;;;;;;;5056590;28;20504;-64
2021/12/31 01:27:47;;;;;;;67.30;6.70;;;;;;;;;;5056584;28;20076;-64
2021/12/31 01:30:14;;;;;;;51.20;7.10;;;;;;;;;;5056809;28;20072;-64
2021/12/31 01:32:41;;;;;;;55.65;6.88;;;;;;;;;;5057569;28;20052;-64
2021/12/31 01:35:07;;;;;;;71.45;7.22;;;;;;;;;;5060152;28;20512;-64
2021/12/31 01:37:35;;;;;;;47.50;6.50;;;;;;;;;;5056065;28;20134;-64
2021/12/31 01:40:08;;;;;;;81.22;7.93;;;;;;;;;;5058644;28;20537;-64
2021/12/31 01:42:36;;;;;;;61.83;7.20;;;;;;;;;;5056891;28;20057;-64
2021/12/31 01:45:12;;;;;;;71.65;8.00;;;;;;;;;;5059176;28;20114;-65
2021/12/31 01:47:59;;;;;;;57.45;7.93;;;;;;;;;;5064294;28;20056;-64
2021/12/31 01:50:27;;;;;;;59.60;6.30;;;;;;;;;;5059780;28;20132;-65
2021/12/31 01:53:01;;;;;;;64.25;6.35;;;;;;;;;;5059304;28;20131;-64
2021/12/31 01:55:29;;;;;;;50.67;6.70;;;;;;;;;;5072764;28;20127;-64
2021/12/31 01:57:56;;;;;;;46.70;5.55;;;;;;;;;;5080545;28;20092;-64
2021/12/31 02:00:23;;;;;;;54.70;6.65;;;;;;;;;;5077097;28;20076;-65
2021/12/31 02:02:49;;;;;;;46.53;6.20;;;;;;;;;;5079869;28;20469;-64
2021/12/31 02:05:16;;;;;;;54.35;6.57;;;;;;;;;;5080312;28;20036;-64
2021/12/31 02:07:45;;;;;;;61.83;6.57;;;;;;;;;;5056027;28;20049;-65
2021/12/31 02:10:12;;;;;;;59.00;6.40;;;;;;;;;;5076738;28;20049;-65
2021/12/31 02:12:40;;;;;;;51.17;6.10;;;;;;;;;;5080721;28;20131;-64
2021/12/31 02:15:10;;;;;;;50.13;6.90;;;;;;;;;;5077113;28;20086;-64
2021/12/31 02:17:36;;;;;;;62.28;6.35;;;;;;;;;;5079315;28;20165;-64
2021/12/31 02:20:05;;;;;;;56.63;6.53;;;;;;;;;;5078084;28;20140;-64
2021/12/31 02:22:38;;;;;;;51.40;5.95;;;;;;;;;;5075142;28;20131;-65
2021/12/31 02:25:06;;;;;;;57.45;6.13;;;;;;;;;;5072876;28;20052;-65
2021/12/31 02:27:37;;;;;;;83.25;7.35;;;;;;;;;;5077437;28;20059;-65
2021/12/31 02:30:04;;;;;;;44.05;6.30;;;;;;;;;;5081929;28;20126;-64
2021/12/31 02:32:30;;;;;;;47.75;6.20;;;;;;;;;;5082043;28;20496;-65
2021/12/31 02:34:57;;;;;;;46.33;6.60;;;;;;;;;;5079519;28;20059;-64
2021/12/31 02:37:23;;;;;;;46.90;6.20;;;;;;;;;;5079255;28;20135;-65
2021/12/31 02:39:50;;;;;;;48.25;6.45;;;;;;;;;;5081842;28;20644;-64
2021/12/31 02:42:17;;;;;;;49.33;6.43;;;;;;;;;;5080092;28;20123;-64
2021/12/31 02:44:45;;;;;;;50.00;6.28;;;;;;;;;;5055047;28;20460;-65
2021/12/31 02:47:11;;;;;;;45.70;5.97;;;;;;;;;;5042317;28;20052;-64
2021/12/31 02:49:39;;;;;;;53.97;6.90;;;;;;;;;;5057313;28;20128;-65
2021/12/31 02:52:12;;;;;;;45.45;5.97;;;;;;;;;;5060205;28;20511;-65
2021/12/31 02:54:40;;;;;;;55.72;6.47;;;;;;;;;;5055407;28;20068;-64
2021/12/31 02:57:07;;;;;;;44.45;6.43;;;;;;;;;;5058221;28;20107;-64
2021/12/31 02:59:37;;;;;;;56.30;6.63;;;;;;;;;;5057767;28;20092;-65
2021/12/31 03:02:06;;;;;;;40.35;6.15;;;;;;;;;;5057682;28;20144;-65
2021/12/31 03:04:38;;;;;;;48.70;6.90;;;;;;;;;;5059028;28;20042;-65
2021/12/31 03:07:05;;;;;;;71.95;7.70;;;;;;;;;;5060708;28;20084;-64
2021/12/31 03:09:33;;;;;;;54.35;7.70;;;;;;;;;;5058464;28;20095;-64
2021/12/31 03:11:59;;;;;;;54.58;7.22;;;;;;;;;;5062066;28;20144;-64
2021/12/31 03:14:29;;;;;;;52.72;7.50;;;;;;;;;;5056096;28;20944;-64
2021/12/31 03:16:57;;;;;;;52.80;7.68;;;;;;;;;;5060350;28;20080;-65
2021/12/31 03:19:23;;;;;;;49.75;7.55;;;;;;;;;;5059258;28;20049;-64
2021/12/31 03:21:57;;;;;;;48.28;7.57;;;;;;;;;;5058684;28;20076;-64
2021/12/31 03:24:23;;;;;;;68.47;9.45;;;;;;;;;;5056943;28;20135;-64
2021/12/31 03:26:50;;;;;;;72.85;9.15;;;;;;;;;;5059922;28;20059;-64
2021/12/31 03:29:17;;;;;;;64.45;9.27;;;;;;;;;;5057166;28;20084;-64
2021/12/31 03:31:43;;;;;;;56.70;9.70;;;;;;;;;;5060194;28;20539;-64
2021/12/31 03:34:10;;;;;;;67.95;9.95;;;;;;;;;;5060133;28;20335;-64
2021/12/31 03:36:39;;;;;;;62.90;10.15;;;;;;;;;;5058502;28;20128;-64
2021/12/31 03:39:06;;;;;;;71.23;10.07;;;;;;;;;;5056254;28;20501;-64
2021/12/31 03:41:32;;;;;;;128.40;12.25;;;;;;;;;;5059505;28;20314;-64
2021/12/31 03:44:05;;;;;;;102.20;11.48;;;;;;;;;;5057742;28;20083;-64
2021/12/31 03:46:32;;;;;;;77.15;11.40;;;;;;;;;;5056428;28;20088;-64
2021/12/31 03:48:58;;;;;;;100.00;12.75;;;;;;;;;;5056817;28;20091;-65
2021/12/31 03:51:25;;;;;;;91.53;11.50;;;;;;;;;;5056847;28;20041;-64
2021/12/31 03:53:52;;;;;;;235.00;16.13;;;;;;;;;;5057481;28;20088;-65
2021/12/31 03:56:21;;;;;;;78.00;10.90;;;;;;;;;;5056772;28;20049;-64
2021/12/31 03:58:50;;;;;;;58.13;10.60;;;;;;;;;;5062935;28;20053;-64
2021/12/31 04:01:17;;;;;;;219.25;15.23;;;;;;;;;;5059325;28;20091;-64
2021/12/31 04:03:43;;;;;;;107.45;11.90;;;;;;;;;;5061151;28;20045;-65
2021/12/31 04:06:10;;;;;;;78.13;10.37;;;;;;;;;;5055590;28;20132;-64
2021/12/31 04:08:36;;;;;;;67.32;10.50;;;;;;;;;;5059921;28;20135;-64
2021/12/31 04:11:03;;;;;;;65.85;9.15;;;;;;;;;;5062752;28;20135;-64
2021/12/31 04:13:32;;;;;;;56.30;9.52;;;;;;;;;;5061392;28;20136;-64
2021/12/31 04:15:58;;;;;;;55.25;9.25;;;;;;;;;;5059772;28;20131;-64
2021/12/31 04:18:26;;;;;;;59.60;9.20;;;;;;;;;;5062808;28;20530;-64
2021/12/31 04:20:57;;;;;;;71.55;10.50;;;;;;;;;;5059980;28;20044;-64
2021/12/31 04:23:28;;;;;;;79.18;10.73;;;;;;;;;;5058594;28;20124;-64
2021/12/31 04:25:55;;;;;;;92.88;9.93;;;;;;;;;;5065425;28;20482;-64
2021/12/31 04:28:22;;;;;;;100.65;10.90;;;;;;;;;;5061525;28;20155;-64
2021/12/31 04:30:48;;;;;;;95.00;10.45;;;;;;;;;;5059972;28;20135;-64
2021/12/31 04:33:15;;;;;;;68.25;9.93;;;;;;;;;;5061011;28;20045;-64
2021/12/31 04:35:43;;;;;;;81.57;11.90;;;;;;;;;;5062957;28;20120;-64
2021/12/31 04:38:09;;;;;;;86.80;10.70;;;;;;;;;;5057259;28;20087;-64
2021/12/31 04:40:36;;;;;;;77.65;9.75;;;;;;;;;;5057765;28;20048;-64
2021/12/31 04:43:09;;;;;;;49.42;9.13;;;;;;;;;;5058734;28;20128;-64
2021/12/31 04:45:35;;;;;;;51.55;8.13;;;;;;;;;;5057600;28;20124;-64
2021/12/31 04:48:03;;;;;;;46.80;9.30;;;;;;;;;;5060277;28;20056;-64
2021/12/31 04:50:36;;;;;;;57.67;9.63;;;;;;;;;;5058113;28;20367;-64
2021/12/31 04:53:04;;;;;;;45.28;8.95;;;;;;;;;;5059538;28;20135;-64
2021/12/31 04:55:31;;;;;;;53.30;9.35;;;;;;;;;;5060912;28;20041;-64
2021/12/31 04:57:57;;;;;;;50.72;8.63;;;;;;;;;;5060803;28;20506;-64
2021/12/31 05:00:24;;;;;;;54.20;8.43;;;;;;;;;;5059583;28;20473;-64
2021/12/31 05:02:50;;;;;;;33.83;7.13;;;;;;;;;;5057802;28;20191;-64
2021/12/31 05:05:19;;;;;;;43.90;7.68;;;;;;;;;;5059428;28;20052;-64
2021/12/31 05:07:46;;;;;;;45.60;8.10;;;;;;;;;;5059492;28;20716;-64
2021/12/31 05:10:14;;;;;;;55.75;8.00;;;;;;;;;;5061090;28;20079;-64
2021/12/31 05:12:52;;;;;;;30.05;6.63;;;;;;;;;;5061054;28;20527;-64
2021/12/31 05:15:27;;;;;;;42.03;6.82;;;;;;;;;;5060900;28;20080;-64
2021/12/31 05:17:54;;;;;;;39.30;7.28;;;;;;;;;;5062157;28;20137;-64
2021/12/31 05:20:21;;;;;;;37.78;6.80;;;;;;;;;;5062007;28;20048;-64
2021/12/31 05:22:47;;;;;;;31.77;6.88;;;;;;;;;;5060688;28;20077;-64
2021/12/31 05:25:16;;;;;;;39.20;6.43;;;;;;;;;;5078989;28;20453;-64
2021/12/31 05:27:43;;;;;;;48.90;7.18;;;;;;;;;;5083932;28;20111;-64
2021/12/31 05:30:09;;;;;;;36.08;6.95;;;;;;;;;;5076545;28;20128;-64
2021/12/31 05:32:42;;;;;;;34.05;6.50;;;;;;;;;;5056461;28;20045;-64
2021/12/31 05:35:08;;;;;;;43.70;6.97;;;;;;;;;;5054023;28;20128;-64
2021/12/31 05:37:35;;;;;;;42.47;7.43;;;;;;;;;;5061151;28;20504;-64
2021/12/31 05:40:02;;;;;;;40.20;7.38;;;;;;;;;;5060785;28;20135;-64
2021/12/31 05:42:28;;;;;;;37.20;6.10;;;;;;;;;;5059276;28;20125;-64
2021/12/31 05:44:54;;;;;;;44.33;7.35;;;;;;;;;;5060591;28;20813;-64
2021/12/31 05:47:23;;;;;;;42.15;8.75;;;;;;;;;;5059916;28;20075;-64
2021/12/31 05:49:50;;;;;;;54.20;8.63;;;;;;;;;;5057993;28;20059;-64
2021/12/31 05:52:16;;;;;;;48.65;7.75;;;;;;;;;;5062408;28;20079;-64
2021/12/31 05:54:45;;;;;;;39.80;8.07;;;;;;;;;;5058028;28;20057;-64
2021/12/31 05:57:11;;;;;;;54.35;8.43;;;;;;;;;;5065942;28;20128;-64
2021/12/31 05:59:38;;;;;;;37.85;7.15;;;;;;;;;;5059276;28;20132;-64
2021/12/31 06:02:05;;;;;;;48.42;7.75;;;;;;;;;;5056641;28;20076;-64
2021/12/31 06:04:32;;;;;;;44.65;7.63;;;;;;;;;;5058470;28;20060;-64
2021/12/31 06:06:58;;;;;;;88.13;10.00;;;;;;;;;;5058668;28;20084;-64
2021/12/31 06:09:25;;;;;;;53.00;8.73;;;;;;;;;;5061945;28;20083;-64
2021/12/31 06:11:51;;;;;;;61.80;9.32;;;;;;;;;;5061951;28;20136;-64
2021/12/31 06:14:17;;;;;;;45.05;8.85;;;;;;;;;;5060405;28;20087;-64
2021/12/31 06:16:46;;;;;;;50.42;9.07;;;;;;;;;;5055920;28;20597;-64
2021/12/31 06:19:12;;;;;;;;;;;;;;;;;;5054945;28;20056;-64
2021/12/31 06:21:39;;;;;;;55.85;8.18;;;;;;;;;;5058122;28;19983;-64
2021/12/31 06:24:12;;;;;;;38.17;7.45;;;;;;;;;;5058262;28;20057;-64
2021/12/31 06:26:39;;;;;;;41.45;7.55;;;;;;;;;;5058891;28;20041;-64
2021/12/31 06:29:05;;;;;;;42.95;8.20;;;;;;;;;;5062918;28;20088;-64
2021/12/31 06:31:39;;;;;;;41.03;7.57;;;;;;;;;;5057367;28;20036;-64
2021/12/31 06:34:05;;;;;;;34.63;8.23;;;;;;;;;;5060172;28;20571;-64
2021/12/31 06:36:32;;;;;;;53.58;8.68;;;;;;;;;;5058613;28;20683;-64
2021/12/31 06:39:02;;;;;;;40.28;7.43;;;;;;;;;;5056535;28;20635;-64
2021/12/31 06:41:28;;;;;;;34.67;7.53;;;;;;;;;;5055316;28;20164;-64
2021/12/31 06:43:55;;;;;;;33.30;7.40;;;;;;;;;;5059901;28;20062;-64
2021/12/31 06:46:23;;;;;;;39.17;7.50;;;;;;;;;;5057999;28;20637;-64
2021/12/31 06:48:49;;;;;;;34.50;8.00;;;;;;;;;;5057443;28;20057;-64
2021/12/31 06:51:16;;;;;;;56.13;8.35;;;;;;;;;;5059359;28;20629;-64
2021/12/31 06:53:45;;;;;;;60.50;8.65;;;;;;;;;;5061413;28;20048;-64
2021/12/31 06:56:11;;;;;;;47.88;8.25;;;;;;;;;;5057577;28;20167;-64
2021/12/31 06:58:38;;;;;;;105.47;10.50;;;;;;;;;;5054497;28;20061;-64
2021/12/31 07:01:04;;;;;;;50.33;8.13;;;;;;;;;;5060415;28;20161;-64
2021/12/31 07:03:31;;;;;;;127.00;10.63;;;;;;;;;;5056243;28;20064;-64
2021/12/31 07:05:58;;;;;;;46.83;7.82;;;;;;;;;;5057062;28;20040;-64
2021/12/31 07:08:25;;;;;;;163.40;12.20;;;;;;;;;;5053465;28;20149;-64
2021/12/31 07:10:52;;;;;;;27.10;6.70;;;;;;;;;;5055125;28;20053;-64
2021/12/31 07:13:18;;;;;;;95.27;9.40;;;;;;;;;;5049479;28;20140;-64
2021/12/31 07:15:48;;;;;;;78.95;8.75;;;;;;;;;;5050080;28;20080;-64
2021/12/31 07:18:15;;;;;;;49.60;8.25;;;;;;;;;;5057287;28;20064;-64
2021/12/31 07:20:42;;;;;;;529.40;24.80;;;;;;;;;;5055727;28;20124;-64
2021/12/31 07:23:16;;;;;;;66.45;8.80;;;;;;;;;;5055572;28;20114;-64
2021/12/31 07:25:43;;;;;;;238.00;13.02;;;;;;;;;;5062171;28;20076;-64
2021/12/31 07:28:10;;;;;;;114.45;10.13;;;;;;;;;;5057411;28;20044;-64
2021/12/31 07:30:37;;;;;;;131.13;11.00;;;;;;;;;;5058116;28;20076;-64
2021/12/31 07:33:03;;;;;;;182.20;11.07;;;;;;;;;;5056149;28;20489;-64
2021/12/31 07:35:31;;;;;;;395.00;18.83;;;;;;;;;;5057293;28;20088;-64
2021/12/31 07:38:04;;;;;;;118.40;9.55;;;;;;;;;;5059594;28;20492;-64
2021/12/31 07:40:39;;;;;;;242.15;14.90;;;;;;;;;;5055530;28;20554;-64
2021/12/31 07:43:06;;;;;;;503.40;23.15;;;;;;;;;;5059282;28;20048;-64
2021/12/31 07:45:32;;;;;;;110.00;9.32;;;;;;;;;;5064642;28;20087;-64
2021/12/31 07:47:59;;;;;;;271.60;13.95;;;;;;;;;;5061056;28;20045;-64
2021/12/31 07:50:27;;;;;;;593.15;26.77;;;;;;;;;;5066547;28;20088;-64
2021/12/31 07:52:54;;;;;;;566.67;24.77;;;;;;;;;;5061208;28;20139;-64
2021/12/31 07:55:20;;;;;;;624.35;28.75;;;;;;;;;;5062334;28;20193;-64
2021/12/31 07:57:47;;;;;;;648.50;30.75;;;;;;;;;;5058250;28;20489;-64
2021/12/31 08:00:13;;;;;;;601.63;26.25;;;;;;;;;;5062194;28;20048;-64
2021/12/31 08:02:40;;;;;;;367.70;17.00;;;;;;;;;;5065346;28;20052;-64
2021/12/31 08:05:07;;;;;;;608.97;25.50;;;;;;;;;;5060846;28;20049;-64
2021/12/31 08:07:33;;;;;;;603.28;25.08;;;;;;;;;;5063972;28;20079;-64
2021/12/31 08:09:59;;;;;;;723.67;32.40;;;;;;;;;;5060855;28;20049;-64
2021/12/31 08:12:46;;;;;;;590.50;25.25;;;;;;;;;;5057468;28;20095;-64
2021/12/31 08:15:12;;;;;;;660.57;31.43;;;;;;;;;;5078849;28;20164;-64
2021/12/31 08:17:45;;;;;;;602.83;27.45;;;;;;;;;;5059716;28;20334;-64
2021/12/31 08:20:12;;;;;;;591.05;29.27;;;;;;;;;;5059495;28;20095;-64
2021/12/31 08:22:38;;;;;;;560.15;24.80;;;;;;;;;;5082002;28;20484;-64
2021/12/31 08:25:05;;;;;;;600.42;27.15;;;;;;;;;;5074765;28;20052;-64
2021/12/31 08:27:31;;;;;;;168.13;12.07;;;;;;;;;;5081291;28;20675;-64
2021/12/31 08:29:57;;;;;;;720.88;34.33;;;;;;;;;;5080054;28;20346;-64
2021/12/31 08:32:24;;;;;;;658.33;31.92;;;;;;;;;;5080216;28;20086;-64
2021/12/31 08:34:50;;;;;;;463.00;19.70;;;;;;;;;;5081733;28;20105;-64
2021/12/31 08:37:17;;;;;;;668.15;29.70;;;;;;;;;;5080260;28;20546;-64
2021/12/31 08:39:45;;;;;;;789.22;35.78;;;;;;;;;;5075229;28;20567;-64
2021/12/31 08:42:11;;;;;;;515.17;22.52;;;;;;;;;;5077835;28;20209;-63
2021/12/31 08:44:38;;;;;;;301.33;15.77;;;;;;;;;;5080978;28;20139;-64
2021/12/31 08:47:05;;;;;;;241.80;13.10;;;;;;;;;;5059676;28;20780;-64
2021/12/31 08:49:32;;;;;;;314.10;16.80;;;;;;;;;;5061774;28;20125;-64
2021/12/31 08:51:59;;;;;;;557.88;26.67;;;;;;;;;;5057931;28;20143;-64
2021/12/31 08:54:25;;;;;;;362.95;17.13;;;;;;;;;;5060586;28;20575;-64
2021/12/31 08:56:53;;;;;;;157.43;12.85;;;;;;;;;;5060314;28;20075;-64
2021/12/31 08:59:20;;;;;;;;;;;;;;;;;;5060590;27;20500;-64
2021/12/31 09:01:47;;;;;;;86.47;8.10;;;;;;;;;;5061201;28;19968;-64
2021/12/31 09:04:13;;;;;;;234.35;13.75;;;;;;;;;;5056220;28;20072;-64
2021/12/31 09:06:40;;;;;;;392.80;19.48;;;;;;;;;;5059811;28;20150;-64
2021/12/31 09:09:06;;;;;;;276.65;16.23;;;;;;;;;;5062374;28;20052;-64
2021/12/31 09:11:33;;;;;;;158.30;12.57;;;;;;;;;;5063787;28;20052;-64
2021/12/31 09:13:59;;;;;;;271.08;16.10;;;;;;;;;;5060410;28;20137;-63
2021/12/31 09:16:25;;;;;;;422.05;22.95;;;;;;;;;;5062860;28;20469;-64
2021/12/31 09:18:52;;;;;;;606.30;28.47;;;;;;;;;;5059409;28;20132;-64
2021/12/31 09:21:20;;;;;;;574.53;27.00;;;;;;;;;;5058790;28;20391;-64
2021/12/31 09:23:53;;;;;;;434.58;21.90;;;;;;;;;;5060858;28;20119;-64
2021/12/31 09:26:19;;;;;;;260.05;17.17;;;;;;;;;;5063640;28;20127;-64
2021/12/31 09:28:46;;;;;;;491.38;24.00;;;;;;;;;;5061637;28;20136;-63
2021/12/31 09:31:14;;;;;;;360.42;20.17;;;;;;;;;;5062649;28;20080;-64
2021/12/31 09:33:41;;;;;;;490.63;24.97;;;;;;;;;;5060018;28;20113;-64
2021/12/31 09:36:08;;;;;;;591.88;31.77;;;;;;;;;;5061322;28;20324;-63
2021/12/31 09:38:37;;;;;;;122.05;11.90;;;;;;;;;;5059947;28;20049;-63
2021/12/31 09:41:03;;;;;;;167.98;13.95;;;;;;;;;;5056359;28;20576;-63
2021/12/31 09:43:30;;;;;;;230.52;16.17;;;;;;;;;;5054060;28;20131;-63
2021/12/31 09:46:03;;;;;;;141.25;12.95;;;;;;;;;;5058158;28;20092;-64
2021/12/31 09:48:30;;;;;;;344.65;19.50;;;;;;;;;;5056641;28;20045;-64
2021/12/31 09:50:57;;;;;;;236.98;15.38;;;;;;;;;;5056527;28;20100;-64
2021/12/31 09:53:24;;;;;;;294.17;17.60;;;;;;;;;;5058471;28;20132;-64
2021/12/31 09:55:52;;;;;;;479.63;24.60;;;;;;;;;;5061845;28;20135;-63
2021/12/31 09:58:20;;;;;;;380.73;23.15;;;;;;;;;;5059280;28;20106;-64
2021/12/31 10:00:48;;;;;;;662.03;33.20;;;;;;;;;;5060076;28;20055;-64
2021/12/31 10:03:16;;;;;;;329.80;21.92;;;;;;;;;;5056179;28;20088;-64
2021/12/31 10:05:44;;;;;;;456.27;23.70;;;;;;;;;;5080062;28;20131;-63
2021/12/31 10:08:18;;;;;;;417.58;22.90;;;;;;;;;;5076784;28;20578;-64
2021/12/31 10:11:03;;;;;;;242.05;17.05;;;;;;;;;;5077745;28;20432;-64
2021/12/31 10:13:31;;;;;;;172.70;15.02;;;;;;;;;;5076893;28;20539;-63
2021/12/31 10:15:58;;;;;;;93.43;11.48;;;;;;;;;;5081877;28;20085;-64
2021/12/31 10:18:32;;;;;;;301.37;18.90;;;;;;;;;;5074729;28;20500;-64
2021/12/31 10:20:59;;;;;;;594.33;31.63;;;;;;;;;;5075079;28;20658;-64
2021/12/31 10:23:25;;;;;;;225.68;16.15;;;;;;;;;;5076997;28;20044;-64
2021/12/31 10:26:05;;;;;;;291.10;20.08;;;;;;;;;;5075984;28;20135;-64
2021/12/31 10:28:34;;;;;;;210.65;14.73;;;;;;;;;;5080558;28;20071;-64
2021/12/31 10:31:11;;;;;;;702.75;34.55;;;;;;;;;;5080676;28;20053;-64
2021/12/31 10:33:44;;;;;;;291.00;17.60;;;;;;;;;;5084606;28;20044;-64
2021/12/31 10:36:30;;;;;;;254.88;17.40;;;;;;;;;;5081877;28;20167;-63
2021/12/31 10:38:57;;;;;;;280.13;18.88;;;;;;;;;;5077173;28;20142;-64
2021/12/31 10:41:24;;;;;;;;;;;;;;;;;;5078595;28;20123;-64
2021/12/31 10:43:58;;;;;;;133.52;13.68;;;;;;;;;;5075954;28;19974;-64
2021/12/31 10:46:25;;;;;;;57.88;8.30;;;;;;;;;;5080822;28;20151;-64
2021/12/31 10:48:54;;;;;;;102.35;10.60;;;;;;;;;;5078184;28;20137;-64
2021/12/31 10:51:39;;;;;;;44.35;7.72;;;;;;;;;;5073966;28;20595;-64
2021/12/31 10:54:18;;;;;;;61.00;8.80;;;;;;;;;;5084962;28;20486;-64
2021/12/31 10:56:45;;;;;;;34.55;7.78;;;;;;;;;;5077904;28;20071;-64
2021/12/31 10:59:11;;;;;;;29.83;6.88;;;;;;;;;;5068418;28;20516;-64
2021/12/31 11:01:44;;;;;;;30.40;6.63;;;;;;;;;;5054741;28;20127;-64
2021/12/31 11:04:11;;;;;;;24.57;5.17;;;;;;;;;;5058111;28;20582;-64
2021/12/31 11:06:40;;;;;;;37.03;7.17;;;;;;;;;;5056881;28;20141;-64
2021/12/31 11:09:07;;;;;;;27.02;6.35;;;;;;;;;;5057483;28;20314;-64
2021/12/31 11:11:34;;;;;;;25.48;5.82;;;;;;;;;;5060140;28;20136;-64
2021/12/31 11:14:02;;;;;;;30.02;6.55;;;;;;;;;;5055860;28;20080;-64
2021/12/31 11:16:29;;;;;;;37.42;7.57;;;;;;;;;;5052734;28;20127;-64
2021/12/31 11:18:56;;;;;;;46.33;6.05;;;;;;;;;;5056624;28;20124;-63
2021/12/31 11:21:23;;;;;;;25.73;4.65;;;;;;;;;;5055974;28;20147;-64
2021/12/31 11:23:50;;;;;;;35.10;5.38;;;;;;;;;;5057674;28;20481;-64
2021/12/31 11:26:26;;;;;;;27.10;5.32;;;;;;;;;;5059269;28;20741;-65
2021/12/31 11:28:53;;;;;;;27.45;6.07;;;;;;;;;;5060292;28;20760;-64
2021/12/31 11:31:19;;;;;;;42.85;7.05;;;;;;;;;;5058462;28;20599;-64
2021/12/31 11:34:08;;;;;;;50.75;7.55;;;;;;;;;;5056715;28;20064;-64
2021/12/31 11:36:39;;;;;;;33.03;6.97;;;;;;;;;;5052169;28;20083;-64
2021/12/31 11:39:15;;;;;;;47.67;7.10;;;;;;;;;;5062423;28;20504;-64
2021/12/31 11:41:48;;;;;;;51.55;7.65;;;;;;;;;;5054754;28;20053;-64
2021/12/31 11:44:16;;;;;;;39.40;7.05;;;;;;;;;;5036038;28;20084;-64
2021/12/31 11:46:47;;;;;;;33.17;6.05;;;;;;;;;;5058414;28;20059;-64
2021/12/31 11:49:13;;;;;;;;;;;;;;;;;;5059921;28;20052;-64
2021/12/31 11:51:55;;;;;;;37.35;6.05;;;;;;;;;;5056298;28;20016;-64
2021/12/31 11:54:22;;;;;;;48.08;6.10;;;;;;;;;;5056610;28;20493;-64
2021/12/31 11:56:52;;;;;;;81.78;8.02;;;;;;;;;;5057891;28;20045;-64
2021/12/31 11:59:21;;;;;;;76.57;7.18;;;;;;;;;;5056975;28;20086;-64
2021/12/31 12:02:07;;;;;;;111.15;9.10;;;;;;;;;;5055558;28;20489;-64
2021/12/31 12:04:35;;;;;;;50.08;6.78;;;;;;;;;;5054672;28;20049;-64
2021/12/31 12:07:03;;;;;;;172.93;12.13;;;;;;;;;;5057480;28;20094;-64
2021/12/31 12:09:36;;;;;;;69.38;8.43;;;;;;;;;;5059478;28;20580;-64
2021/12/31 12:12:21;;;;;;;55.22;7.47;;;;;;;;;;5059548;28;20056;-64
2021/12/31 12:14:49;;;;;;;81.47;7.40;;;;;;;;;;5064673;28;20049;-64
2021/12/31 12:17:30;;;;;;;76.13;7.47;;;;;;;;;;5059117;28;20076;-64
2021/12/31 12:19:57;;;;;;;43.33;5.80;;;;;;;;;;5055267;28;20072;-64
2021/12/31 12:22:27;;;;;;;175.70;12.07;;;;;;;;;;5052803;28;20139;-64
2021/12/31 12:24:55;;;;;;;64.90;7.18;;;;;;;;;;5057474;28;20167;-64
2021/12/31 12:27:23;;;;;;;73.70;7.22;;;;;;;;;;5052646;28;20068;-64
2021/12/31 12:29:51;;;;;;;48.25;6.85;;;;;;;;;;5059793;28;20479;-64
2021/12/31 12:32:29;;;;;;;33.47;6.72;;;;;;;;;;5063075;28;20144;-64
2021/12/31 12:34:55;;;;;;;;;;;;;;;;;;5059520;28;20556;-64
2021/12/31 12:37:26;;;;;;;51.50;6.05;;;;;;;;;;5060061;28;19921;-64
2021/12/31 12:40:03;;;;;;;39.53;6.20;;;;;;;;;;5056431;28;20127;-64
2021/12/31 12:42:43;;;;;;;45.80;6.95;;;;;;;;;;5060110;28;20052;-64
2021/12/31 12:45:09;;;;;;;41.45;5.93;;;;;;;;;;5059725;28;20338;-64
2021/12/31 12:47:36;;;;;;;56.58;6.80;;;;;;;;;;5057862;28;20056;-64
2021/12/31 12:50:08;;;;;;;65.30;7.78;;;;;;;;;;5059075;28;20053;-64
2021/12/31 12:52:35;;;;;;;20.85;4.95;;;;;;;;;;5058726;28;20800;-64
2021/12/31 12:55:12;;;;;;;36.75;5.90;;;;;;;;;;5057437;28;20128;-64
2021/12/31 12:57:39;;;;;;;46.05;6.22;;;;;;;;;;5057645;28;20454;-64
2021/12/31 13:00:06;;;;;;;53.30;6.88;;;;;;;;;;5047974;28;20057;-64
2021/12/31 13:02:37;;;;;;;37.75;6.05;;;;;;;;;;5047663;28;20128;-64
2021/12/31 13:05:08;;;;;;;25.80;6.07;;;;;;;;;;5048735;28;20044;-64
2021/12/31 13:07:34;;;;;;;25.08;5.75;;;;;;;;;;5048385;28;20152;-64
2021/12/31 13:10:06;;;;;;;41.60;6.57;;;;;;;;;;5049108;28;20063;-64
2021/12/31 13:12:33;;;;;;;22.67;5.95;;;;;;;;;;5049362;28;20132;-64
2021/12/31 13:15:04;;;;;;;24.45;4.95;;;;;;;;;;5048161;28;20135;-63
2021/12/31 13:17:32;;;;;;;26.42;5.57;;;;;;;;;;5047587;28;20175;-64
2021/12/31 13:20:07;;;;;;;26.05;5.38;;;;;;;;;;5049388;28;20051;-64
2021/12/31 13:22:34;;;;;;;30.02;5.50;;;;;;;;;;5050459;28;20157;-64
2021/12/31 13:25:00;;;;;;;18.63;5.38;;;;;;;;;;5050908;28;20168;-64
2021/12/31 13:27:31;;;;;;;33.42;6.07;;;;;;;;;;5052291;28;20790;-64
2021/12/31 13:30:06;;;;;;;28.98;5.45;;;;;;;;;;5061957;28;20136;-64
2021/12/31 13:32:40;;;;;;;24.02;5.78;;;;;;;;;;5061018;28;20056;-64
2021/12/31 13:35:07;;;;;;;21.95;5.40;;;;;;;;;;5055540;28;20048;-64
2021/12/31 13:37:39;;;;;;;25.60;5.68;;;;;;;;;;5056800;28;20803;-64
2021/12/31 13:40:10;;;;;;;20.30;5.00;;;;;;;;;;5058612;28;20128;-63
2021/12/31 13:42:37;;;;;;;21.17;5.57;;;;;;;;;;5060490;28;20083;-64
2021/12/31 13:45:04;;;;;;;31.25;5.53;;;;;;;;;;5063391;28;20068;-63
2021/12/31 13:47:31;;;;;;;23.25;5.65;;;;;;;;;;5061057;28;20052;-64
2021/12/31 13:50:02;;;;;;;25.90;5.33;;;;;;;;;;5059838;28;20140;-64
2021/12/31 13:52:30;;;;;;;21.27;5.43;;;;;;;;;;5059720;28;20099;-64
2021/12/31 13:55:00;;;;;;;21.80;5.25;;;;;;;;;;5043591;28;20144;-64
2021/12/31 13:57:31;;;;;;;21.88;5.00;;;;;;;;;;5059271;28;20054;-64
2021/12/31 14:00:06;;;;;;;16.45;4.93;;;;;;;;;;5042452;28;20528;-63
2021/12/31 14:02:33;;;;;;;23.08;5.22;;;;;;;;;;5036861;28;20509;-63
2021/12/31 14:05:01;;;;;;;20.45;4.95;;;;;;;;;;5037727;28;20068;-63
2021/12/31 14:07:30;;;;;;;25.65;5.72;;;;;;;;;;5041140;28;20132;-64
2021/12/31 14:09:57;;;;;;;23.13;5.82;;;;;;;;;;5040869;28;20180;-64
2021/12/31 14:12:45;;;;;;;30.77;6.38;;;;;;;;;;5039631;28;20042;-63
2021/12/31 14:15:16;;;;;;;22.63;5.25;;;;;;;;;;5036673;28;20127;-63
2021/12/31 14:17:46;;;;;;;22.75;6.07;;;;;;;;;;5040146;28;20080;-63
2021/12/31 14:20:12;;;;;;;28.15;5.47;;;;;;;;;;5038038;28;20128;-63
2021/12/31 14:22:39;;;;;;;21.67;4.88;;;;;;;;;;5036997;28;20132;-63
2021/12/31 14:25:06;;;;;;;19.40;5.43;;;;;;;;;;5040130;28;20159;-63
2021/12/31 14:27:32;;;;;;;15.30;5.20;;;;;;;;;;5041761;28;20727;-64
2021/12/31 14:29:59;;;;;;;17.73;5.17;;;;;;;;;;5039244;28;20139;-64
2021/12/31 14:32:25;;;;;;;15.55;4.70;;;;;;;;;;5035065;28;20152;-64
2021/12/31 14:34:53;;;;;;;23.02;4.50;;;;;;;;;;5036461;28;20045;-64